sensor_id;sensor_type;location;lat;lon;timestamp;pressure;altitude;pressure_sealevel;temperature;humidity
21401;BME280;18038;50.166;18.908;2023-02-01T00:01:33;97404.13;;;-1.53;86.87
21401;BME280;18038;50.166;18.908;2023-02-01T00:04:39;97408.16;;;-1.49;86.51
21401;BME280;18038;50.166;18.908;2023-02-01T00:07:47;97408.00;;;-1.58;85.98
21401;BME280;18038;50.166;18.908;2023-02-01T00:11:00;97399.44;;;-1.50;85.51
21401;BME280;18038;50.166;18.908;2023-02-01T00:14:08;97407.06;;;-1.47;85.37
21401;BME280;18038;50.166;18.908;2023-02-01T00:17:17;97390.94;;;-1.52;85.39
21401;BME280;18038;50.166;18.908;2023-02-01T00:20:23;97385.13;;;-1.46;85.23
21401;BME280;18038;50.166;18.908;2023-02-01T00:23:32;97377.94;;;-1.53;85.07
21401;BME280;18038;50.166;18.908;2023-02-01T00:26:41;97366.38;;;-1.51;84.79
21401;BME280;18038;50.166;18.908;2023-02-01T00:29:48;97367.50;;;-1.44;84.72
21401;BME280;18038;50.166;18.908;2023-02-01T00:32:57;97372.88;;;-1.36;84.34
21401;BME280;18038;50.166;18.908;2023-02-01T00:36:06;97371.91;;;-1.34;84.38
21401;BME280;18038;50.166;18.908;2023-02-01T00:39:15;97386.13;;;-1.27;84.13
21401;BME280;18038;50.166;18.908;2023-02-01T00:42:21;97365.88;;;-1.25;83.54
21401;BME280;18038;50.166;18.908;2023-02-01T00:45:28;97366.72;;;-1.15;83.40
21401;BME280;18038;50.166;18.908;2023-02-01T00:48:36;97375.53;;;-1.06;82.91
21401;BME280;18038;50.166;18.908;2023-02-01T00:51:46;97372.91;;;-0.87;81.93
21401;BME280;18038;50.166;18.908;2023-02-01T00:54:52;97376.34;;;-0.86;81.68
21401;BME280;18038;50.166;18.908;2023-02-01T00:57:59;97395.13;;;-0.62;80.78
21401;BME280;18038;50.166;18.908;2023-02-01T01:04:48;97436.25;;;-0.33;79.57
21401;BME280;18038;50.166;18.908;2023-02-01T01:07:54;97459.41;;;-0.19;79.41
21401;BME280;18038;50.166;18.908;2023-02-01T01:11:05;97489.41;;;-0.31;79.52
21401;BME280;18038;50.166;18.908;2023-02-01T01:14:11;97479.16;;;-0.73;81.61
21401;BME280;18038;50.166;18.908;2023-02-01T01:17:18;97472.50;;;-1.16;82.49
21401;BME280;18038;50.166;18.908;2023-02-01T01:20:27;97487.47;;;-1.38;83.82
21401;BME280;18038;50.166;18.908;2023-02-01T01:23:34;97491.13;;;-1.50;84.93
21401;BME280;18038;50.166;18.908;2023-02-01T01:26:41;97498.91;;;-1.69;85.60
21401;BME280;18038;50.166;18.908;2023-02-01T01:29:47;97470.19;;;-1.81;85.89
21401;BME280;18038;50.166;18.908;2023-02-01T01:32:53;97501.75;;;-2.03;86.84
21401;BME280;18038;50.166;18.908;2023-02-01T01:36:04;97493.97;;;-2.14;87.17
21401;BME280;18038;50.166;18.908;2023-02-01T01:39:16;97492.81;;;-2.21;87.79
21401;BME280;18038;50.166;18.908;2023-02-01T01:42:22;97499.72;;;-2.20;87.78
21401;BME280;18038;50.166;18.908;2023-02-01T01:45:30;97499.97;;;-2.23;87.67
21401;BME280;18038;50.166;18.908;2023-02-01T01:48:38;97506.97;;;-2.24;87.88
21401;BME280;18038;50.166;18.908;2023-02-01T01:51:51;97512.09;;;-2.22;88.02
21401;BME280;18038;50.166;18.908;2023-02-01T01:55:01;97504.06;;;-2.31;88.27
21401;BME280;18038;50.166;18.908;2023-02-01T01:58:12;97494.16;;;-2.27;88.26
21401;BME280;18038;50.166;18.908;2023-02-01T02:01:23;97481.59;;;-2.33;88.31
21401;BME280;18038;50.166;18.908;2023-02-01T02:04:31;97481.25;;;-2.40;88.79
21401;BME280;18038;50.166;18.908;2023-02-01T02:07:47;97470.94;;;-2.41;88.74
21401;BME280;18038;50.166;18.908;2023-02-01T02:10:56;97447.41;;;-2.41;89.10
21401;BME280;18038;50.166;18.908;2023-02-01T02:14:09;97463.59;;;-2.27;88.83
21401;BME280;18038;50.166;18.908;2023-02-01T02:17:38;97465.00;;;-2.22;88.25
21401;BME280;18038;50.166;18.908;2023-02-01T02:21:12;97465.72;;;-2.20;88.31
21401;BME280;18038;50.166;18.908;2023-02-01T02:24:47;97470.31;;;-2.13;87.98
21401;BME280;18038;50.166;18.908;2023-02-01T02:32:37;97454.34;;;-2.10;86.71
21401;BME280;18038;50.166;18.908;2023-02-01T02:36:15;97468.16;;;-1.98;87.03
21401;BME280;18038;50.166;18.908;2023-02-01T02:39:39;97463.47;;;-2.04;86.51
21401;BME280;18038;50.166;18.908;2023-02-01T02:43:04;97477.75;;;-2.08;86.28
21401;BME280;18038;50.166;18.908;2023-02-01T02:46:33;97466.19;;;-2.06;86.34
21401;BME280;18038;50.166;18.908;2023-02-01T02:50:11;97470.78;;;-1.98;85.98
21401;BME280;18038;50.166;18.908;2023-02-01T02:53:48;97471.31;;;-2.04;86.14
21401;BME280;18038;50.166;18.908;2023-02-01T02:57:19;97464.94;;;-2.11;86.16
21401;BME280;18038;50.166;18.908;2023-02-01T03:00:42;97463.06;;;-1.99;86.16
21401;BME280;18038;50.166;18.908;2023-02-01T03:04:03;97450.03;;;-2.11;86.31
21401;BME280;18038;50.166;18.908;2023-02-01T03:11:32;97458.03;;;-1.91;86.38
21401;BME280;18038;50.166;18.908;2023-02-01T03:14:56;97462.16;;;-1.89;86.11
21401;BME280;18038;50.166;18.908;2023-02-01T03:18:32;97479.41;;;-1.86;86.22
21401;BME280;18038;50.166;18.908;2023-02-01T03:21:50;97469.31;;;-1.91;86.14
21401;BME280;18038;50.166;18.908;2023-02-01T03:25:06;97474.56;;;-1.91;86.36
21401;BME280;18038;50.166;18.908;2023-02-01T03:28:23;97494.16;;;-1.85;86.52
21401;BME280;18038;50.166;18.908;2023-02-01T03:31:34;97467.53;;;-1.90;86.35
21401;BME280;18038;50.166;18.908;2023-02-01T03:34:40;97490.25;;;-1.91;86.76
21401;BME280;18038;50.166;18.908;2023-02-01T03:37:49;97501.63;;;-1.81;86.95
21401;BME280;18038;50.166;18.908;2023-02-01T03:41:04;97486.47;;;-1.77;86.62
21401;BME280;18038;50.166;18.908;2023-02-01T03:44:24;97490.06;;;-1.78;86.71
21401;BME280;18038;50.166;18.908;2023-02-01T03:47:40;97493.28;;;-1.65;86.83
21401;BME280;18038;50.166;18.908;2023-02-01T03:50:58;97498.38;;;-1.63;86.54
21401;BME280;18038;50.166;18.908;2023-02-01T03:54:11;97508.00;;;-1.73;86.51
21401;BME280;18038;50.166;18.908;2023-02-01T03:57:25;97492.44;;;-1.96;86.90
21401;BME280;18038;50.166;18.908;2023-02-01T04:00:38;97506.59;;;-1.77;87.16
21401;BME280;18038;50.166;18.908;2023-02-01T04:03:46;97507.03;;;-1.72;86.88
21401;BME280;18038;50.166;18.908;2023-02-01T04:06:53;97503.59;;;-1.73;86.55
21401;BME280;18038;50.166;18.908;2023-02-01T04:10:00;97497.53;;;-1.73;86.58
21401;BME280;18038;50.166;18.908;2023-02-01T04:13:06;97487.88;;;-1.73;86.40
21401;BME280;18038;50.166;18.908;2023-02-01T04:16:15;97494.94;;;-1.64;86.40
21401;BME280;18038;50.166;18.908;2023-02-01T04:19:21;97486.53;;;-1.67;85.92
21401;BME280;18038;50.166;18.908;2023-02-01T04:22:27;97496.47;;;-1.61;85.75
21401;BME280;18038;50.166;18.908;2023-02-01T04:25:33;97500.06;;;-1.62;85.49
21401;BME280;18038;50.166;18.908;2023-02-01T04:28:40;97488.59;;;-1.61;85.33
21401;BME280;18038;50.166;18.908;2023-02-01T04:31:49;97490.28;;;-1.60;85.20
21401;BME280;18038;50.166;18.908;2023-02-01T04:34:56;97484.63;;;-1.55;84.79
21401;BME280;18038;50.166;18.908;2023-02-01T04:38:02;97479.53;;;-1.57;84.50
21401;BME280;18038;50.166;18.908;2023-02-01T04:41:10;97476.47;;;-1.62;84.57
21401;BME280;18038;50.166;18.908;2023-02-01T04:44:17;97482.09;;;-1.67;84.41
21401;BME280;18038;50.166;18.908;2023-02-01T04:47:26;97478.34;;;-1.74;84.93
21401;BME280;18038;50.166;18.908;2023-02-01T04:50:32;97475.28;;;-1.79;85.12
21401;BME280;18038;50.166;18.908;2023-02-01T04:53:39;97479.59;;;-1.78;85.54
21401;BME280;18038;50.166;18.908;2023-02-01T04:56:45;97484.00;;;-1.78;85.48
21401;BME280;18038;50.166;18.908;2023-02-01T04:59:51;97484.38;;;-1.83;85.55
21401;BME280;18038;50.166;18.908;2023-02-01T05:03:00;97477.00;;;-1.99;86.02
21401;BME280;18038;50.166;18.908;2023-02-01T05:06:07;97480.81;;;-2.03;86.18
21401;BME280;18038;50.166;18.908;2023-02-01T05:09:13;97478.00;;;-2.11;86.35
21401;BME280;18038;50.166;18.908;2023-02-01T05:12:20;97488.09;;;-2.07;85.96
21401;BME280;18038;50.166;18.908;2023-02-01T05:15:38;97481.06;;;-2.06;86.09
21401;BME280;18038;50.166;18.908;2023-02-01T05:18:48;97477.25;;;-2.02;85.86
21401;BME280;18038;50.166;18.908;2023-02-01T05:21:55;97481.50;;;-2.01;85.55
21401;BME280;18038;50.166;18.908;2023-02-01T05:25:02;97481.97;;;-1.96;85.04
21401;BME280;18038;50.166;18.908;2023-02-01T05:28:13;97471.50;;;-1.96;84.72
21401;BME280;18038;50.166;18.908;2023-02-01T05:31:20;97473.19;;;-1.85;84.43
21401;BME280;18038;50.166;18.908;2023-02-01T05:34:29;97470.59;;;-1.85;84.02
21401;BME280;18038;50.166;18.908;2023-02-01T05:37:36;97479.44;;;-1.76;83.51
21401;BME280;18038;50.166;18.908;2023-02-01T05:40:43;97450.34;;;-1.83;83.37
21401;BME280;18038;50.166;18.908;2023-02-01T05:43:52;97474.31;;;-1.57;82.75
21401;BME280;18038;50.166;18.908;2023-02-01T05:46:58;97459.53;;;-1.58;82.30
21401;BME280;18038;50.166;18.908;2023-02-01T05:50:09;97459.50;;;-1.68;81.65
21401;BME280;18038;50.166;18.908;2023-02-01T05:53:16;97459.91;;;-1.72;81.83
21401;BME280;18038;50.166;18.908;2023-02-01T05:56:23;97452.59;;;-1.69;81.00
21401;BME280;18038;50.166;18.908;2023-02-01T05:59:29;97460.19;;;-1.66;80.91
21401;BME280;18038;50.166;18.908;2023-02-01T06:02:36;97457.75;;;-1.58;81.08
21401;BME280;18038;50.166;18.908;2023-02-01T06:05:47;97467.22;;;-1.66;81.03
21401;BME280;18038;50.166;18.908;2023-02-01T06:08:54;97467.94;;;-1.64;80.85
21401;BME280;18038;50.166;18.908;2023-02-01T06:12:00;97458.16;;;-1.62;80.66
21401;BME280;18038;50.166;18.908;2023-02-01T06:15:08;97469.84;;;-1.66;80.42
21401;BME280;18038;50.166;18.908;2023-02-01T06:18:17;97469.56;;;-1.63;80.10
21401;BME280;18038;50.166;18.908;2023-02-01T06:21:29;97475.00;;;-1.55;79.91
21401;BME280;18038;50.166;18.908;2023-02-01T06:24:35;97478.28;;;-1.53;79.99
21401;BME280;18038;50.166;18.908;2023-02-01T06:27:42;97478.28;;;-1.53;79.92
21401;BME280;18038;50.166;18.908;2023-02-01T06:30:49;97470.16;;;-1.50;79.67
21401;BME280;18038;50.166;18.908;2023-02-01T06:34:03;97475.59;;;-1.42;79.62
21401;BME280;18038;50.166;18.908;2023-02-01T06:37:12;97476.31;;;-1.30;79.34
21401;BME280;18038;50.166;18.908;2023-02-01T06:40:18;97476.44;;;-1.31;78.55
21401;BME280;18038;50.166;18.908;2023-02-01T06:43:26;97469.56;;;-1.32;78.32
21401;BME280;18038;50.166;18.908;2023-02-01T06:46:33;97468.72;;;-1.33;78.10
21401;BME280;18038;50.166;18.908;2023-02-01T06:49:39;97465.56;;;-1.27;77.63
21401;BME280;18038;50.166;18.908;2023-02-01T06:52:49;97463.78;;;-1.26;77.80
21401;BME280;18038;50.166;18.908;2023-02-01T06:56:12;97463.66;;;-1.25;77.63
21401;BME280;18038;50.166;18.908;2023-02-01T06:59:19;97453.28;;;-1.26;77.86
21401;BME280;18038;50.166;18.908;2023-02-01T07:02:26;97449.97;;;-1.38;78.18
21401;BME280;18038;50.166;18.908;2023-02-01T07:05:33;97448.72;;;-1.44;78.63
21401;BME280;18038;50.166;18.908;2023-02-01T07:08:41;97447.72;;;-1.43;78.77
21401;BME280;18038;50.166;18.908;2023-02-01T07:11:48;97453.84;;;-1.32;78.61
21401;BME280;18038;50.166;18.908;2023-02-01T07:14:54;97445.44;;;-1.36;78.49
21401;BME280;18038;50.166;18.908;2023-02-01T07:18:01;97449.13;;;-1.29;78.56
21401;BME280;18038;50.166;18.908;2023-02-01T07:21:07;97453.03;;;-1.14;78.34
21401;BME280;18038;50.166;18.908;2023-02-01T07:24:17;97445.34;;;-1.05;77.75
21401;BME280;18038;50.166;18.908;2023-02-01T07:27:23;97450.84;;;-1.08;78.13
21401;BME280;18038;50.166;18.908;2023-02-01T07:30:29;97455.94;;;-1.17;78.33
21401;BME280;18038;50.166;18.908;2023-02-01T07:33:36;97458.28;;;-1.14;78.45
21401;BME280;18038;50.166;18.908;2023-02-01T07:36:43;97455.81;;;-1.05;78.62
21401;BME280;18038;50.166;18.908;2023-02-01T07:39:51;97456.63;;;-1.05;78.24
21401;BME280;18038;50.166;18.908;2023-02-01T07:42:58;97463.03;;;-0.88;77.76
21401;BME280;18038;50.166;18.908;2023-02-01T07:46:05;97452.25;;;-0.95;77.83
21401;BME280;18038;50.166;18.908;2023-02-01T07:49:12;97455.56;;;-0.93;77.29
21401;BME280;18038;50.166;18.908;2023-02-01T07:52:28;97454.19;;;-0.87;77.44
21401;BME280;18038;50.166;18.908;2023-02-01T07:55:40;97456.09;;;-0.89;77.18
21401;BME280;18038;50.166;18.908;2023-02-01T07:58:47;97447.72;;;-0.83;77.32
21401;BME280;18038;50.166;18.908;2023-02-01T08:01:54;97449.38;;;-0.92;77.44
21401;BME280;18038;50.166;18.908;2023-02-01T08:05:00;97466.88;;;-0.92;77.74
21401;BME280;18038;50.166;18.908;2023-02-01T08:08:10;97460.69;;;-0.91;77.61
21401;BME280;18038;50.166;18.908;2023-02-01T08:11:21;97458.34;;;-0.94;77.92
21401;BME280;18038;50.166;18.908;2023-02-01T08:14:31;97449.38;;;-0.92;77.80
21401;BME280;18038;50.166;18.908;2023-02-01T08:17:37;97454.88;;;-0.95;78.24
21401;BME280;18038;50.166;18.908;2023-02-01T08:20:43;97450.59;;;-0.96;77.56
21401;BME280;18038;50.166;18.908;2023-02-01T08:23:51;97449.22;;;-0.90;77.77
21401;BME280;18038;50.166;18.908;2023-02-01T08:27:03;97456.28;;;-0.81;77.45
21401;BME280;18038;50.166;18.908;2023-02-01T08:30:10;97445.63;;;-0.79;77.48
21401;BME280;18038;50.166;18.908;2023-02-01T08:33:17;97448.41;;;-0.81;77.61
21401;BME280;18038;50.166;18.908;2023-02-01T08:36:25;97448.00;;;-0.86;77.35
21401;BME280;18038;50.166;18.908;2023-02-01T08:39:39;97454.88;;;-0.85;77.42
21401;BME280;18038;50.166;18.908;2023-02-01T08:42:54;97453.38;;;-0.78;76.78
21401;BME280;18038;50.166;18.908;2023-02-01T08:46:06;97449.38;;;-0.72;77.30
21401;BME280;18038;50.166;18.908;2023-02-01T08:49:13;97446.75;;;-0.72;76.79
21401;BME280;18038;50.166;18.908;2023-02-01T08:52:20;97451.72;;;-0.69;76.75
21401;BME280;18038;50.166;18.908;2023-02-01T08:55:27;97458.63;;;-0.58;76.24
21401;BME280;18038;50.166;18.908;2023-02-01T08:58:37;97460.16;;;-0.75;76.62
21401;BME280;18038;50.166;18.908;2023-02-01T09:01:43;97475.19;;;-0.58;76.92
21401;BME280;18038;50.166;18.908;2023-02-01T09:04:50;97467.72;;;-0.72;77.46
21401;BME280;18038;50.166;18.908;2023-02-01T09:07:56;97464.81;;;-0.79;77.57
21401;BME280;18038;50.166;18.908;2023-02-01T09:11:06;97460.56;;;-0.70;78.35
21401;BME280;18038;50.166;18.908;2023-02-01T09:14:17;97458.59;;;-0.68;78.11
21401;BME280;18038;50.166;18.908;2023-02-01T09:17:24;97464.69;;;-0.58;77.53
21401;BME280;18038;50.166;18.908;2023-02-01T09:20:32;97462.19;;;-0.50;77.19
21401;BME280;18038;50.166;18.908;2023-02-01T09:23:39;97462.47;;;-0.53;77.16
21401;BME280;18038;50.166;18.908;2023-02-01T09:26:46;97457.25;;;-0.43;77.35
21401;BME280;18038;50.166;18.908;2023-02-01T09:29:55;97453.09;;;-0.45;78.39
21401;BME280;18038;50.166;18.908;2023-02-01T09:33:07;97445.63;;;-0.50;79.25
21401;BME280;18038;50.166;18.908;2023-02-01T09:36:16;97437.06;;;-0.52;78.31
21401;BME280;18038;50.166;18.908;2023-02-01T09:39:22;97442.47;;;-0.44;78.50
21401;BME280;18038;50.166;18.908;2023-02-01T09:42:46;97435.69;;;-0.37;78.06
21401;BME280;18038;50.166;18.908;2023-02-01T09:46:20;97419.53;;;-0.32;77.42
21401;BME280;18038;50.166;18.908;2023-02-01T09:49:32;97430.41;;;-0.17;76.49
21401;BME280;18038;50.166;18.908;2023-02-01T09:52:55;97425.28;;;-0.09;76.02
21401;BME280;18038;50.166;18.908;2023-02-01T09:56:12;97418.22;;;0.01;75.45
21401;BME280;18038;50.166;18.908;2023-02-01T09:59:37;97427.53;;;0.23;75.64
21401;BME280;18038;50.166;18.908;2023-02-01T10:02:49;97419.94;;;0.20;74.70
21401;BME280;18038;50.166;18.908;2023-02-01T10:06:09;97407.59;;;0.30;74.39
21401;BME280;18038;50.166;18.908;2023-02-01T10:09:57;97400.38;;;0.32;74.39
21401;BME280;18038;50.166;18.908;2023-02-01T10:13:28;97410.13;;;0.50;73.17
21401;BME280;18038;50.166;18.908;2023-02-01T10:16:54;97401.16;;;0.43;73.47
21401;BME280;18038;50.166;18.908;2023-02-01T10:20:22;97393.84;;;0.46;73.72
21401;BME280;18038;50.166;18.908;2023-02-01T10:23:57;97404.91;;;0.40;74.15
21401;BME280;18038;50.166;18.908;2023-02-01T10:27:22;97390.19;;;0.19;74.84
21401;BME280;18038;50.166;18.908;2023-02-01T10:30:40;97395.13;;;0.32;74.69
21401;BME280;18038;50.166;18.908;2023-02-01T10:33:56;97398.13;;;0.37;75.52
21401;BME280;18038;50.166;18.908;2023-02-01T10:37:20;97389.94;;;0.23;74.72
21401;BME280;18038;50.166;18.908;2023-02-01T10:40:33;97393.38;;;0.23;75.10
21401;BME280;18038;50.166;18.908;2023-02-01T10:43:42;97395.34;;;0.11;75.49
21401;BME280;18038;50.166;18.908;2023-02-01T10:46:50;97401.31;;;0.04;76.27
21401;BME280;18038;50.166;18.908;2023-02-01T10:50:08;97387.47;;;0.11;75.83
21401;BME280;18038;50.166;18.908;2023-02-01T10:53:29;97395.31;;;0.21;76.27
21401;BME280;18038;50.166;18.908;2023-02-01T10:56:44;97385.78;;;0.20;75.79
21401;BME280;18038;50.166;18.908;2023-02-01T10:59:51;97385.34;;;0.25;75.95
21401;BME280;18038;50.166;18.908;2023-02-01T11:02:57;97387.50;;;0.39;75.94
21401;BME280;18038;50.166;18.908;2023-02-01T11:06:26;97391.84;;;0.30;76.53
21401;BME280;18038;50.166;18.908;2023-02-01T11:09:39;97377.41;;;0.34;76.00
21401;BME280;18038;50.166;18.908;2023-02-01T11:12:53;97375.97;;;0.50;76.21
21401;BME280;18038;50.166;18.908;2023-02-01T11:16:12;97381.53;;;0.47;75.50
21401;BME280;18038;50.166;18.908;2023-02-01T11:19:20;97383.03;;;0.49;75.99
21401;BME280;18038;50.166;18.908;2023-02-01T11:22:28;97375.97;;;0.50;75.95
21401;BME280;18038;50.166;18.908;2023-02-01T11:25:37;97378.00;;;0.56;76.65
21401;BME280;18038;50.166;18.908;2023-02-01T11:28:52;97375.09;;;0.31;77.21
21401;BME280;18038;50.166;18.908;2023-02-01T11:32:03;97366.22;;;0.32;78.08
21401;BME280;18038;50.166;18.908;2023-02-01T11:35:17;97359.53;;;0.66;77.82
21401;BME280;18038;50.166;18.908;2023-02-01T11:38:29;97351.63;;;0.48;78.31
21401;BME280;18038;50.166;18.908;2023-02-01T11:41:58;97347.75;;;0.52;78.08
21401;BME280;18038;50.166;18.908;2023-02-01T11:45:19;97348.88;;;0.67;77.66
21401;BME280;18038;50.166;18.908;2023-02-01T11:48:32;97332.44;;;0.65;77.50
21401;BME280;18038;50.166;18.908;2023-02-01T11:51:52;97333.91;;;0.50;77.61
21401;BME280;18038;50.166;18.908;2023-02-01T11:55:36;97328.16;;;0.64;77.70
21401;BME280;18038;50.166;18.908;2023-02-01T11:59:25;97325.66;;;0.80;77.39
21401;BME280;18038;50.166;18.908;2023-02-01T12:06:58;97313.22;;;0.82;76.84
21401;BME280;18038;50.166;18.908;2023-02-01T12:10:26;97312.06;;;0.67;76.46
21401;BME280;18038;50.166;18.908;2023-02-01T12:13:51;97303.97;;;0.60;77.16
21401;BME280;18038;50.166;18.908;2023-02-01T12:21:18;97297.06;;;0.77;76.66
21401;BME280;18038;50.166;18.908;2023-02-01T12:28:42;97290.75;;;0.88;75.95
21401;BME280;18038;50.166;18.908;2023-02-01T12:32:27;97292.09;;;0.74;76.18
21401;BME280;18038;50.166;18.908;2023-02-01T12:35:58;97294.72;;;0.92;76.20
21401;BME280;18038;50.166;18.908;2023-02-01T12:39:22;97288.78;;;0.72;75.94
21401;BME280;18038;50.166;18.908;2023-02-01T12:42:38;97297.75;;;0.79;76.34
21401;BME280;18038;50.166;18.908;2023-02-01T12:45:57;97292.09;;;0.74;76.42
21401;BME280;18038;50.166;18.908;2023-02-01T12:49:14;97297.22;;;0.76;76.69
21401;BME280;18038;50.166;18.908;2023-02-01T12:52:37;97290.00;;;0.60;77.55
21401;BME280;18038;50.166;18.908;2023-02-01T12:55:53;97279.34;;;0.61;77.79
21401;BME280;18038;50.166;18.908;2023-02-01T12:59:04;97270.50;;;0.62;77.73
21401;BME280;18038;50.166;18.908;2023-02-01T13:02:27;97262.06;;;0.77;77.02
21401;BME280;18038;50.166;18.908;2023-02-01T13:05:55;97249.53;;;0.71;76.99
21401;BME280;18038;50.166;18.908;2023-02-01T13:09:27;97250.28;;;0.63;76.92
21401;BME280;18038;50.166;18.908;2023-02-01T13:12:53;97241.50;;;0.54;76.75
21401;BME280;18038;50.166;18.908;2023-02-01T13:16:15;97233.31;;;0.57;76.50
21401;BME280;18038;50.166;18.908;2023-02-01T13:19:41;97226.44;;;0.82;75.44
21401;BME280;18038;50.166;18.908;2023-02-01T13:22:59;97235.47;;;0.80;74.84
21401;BME280;18038;50.166;18.908;2023-02-01T13:26:09;97225.25;;;0.77;75.27
21401;BME280;18038;50.166;18.908;2023-02-01T13:29:18;97231.19;;;0.79;74.33
21401;BME280;18038;50.166;18.908;2023-02-01T13:32:46;97229.69;;;0.76;74.41
21401;BME280;18038;50.166;18.908;2023-02-01T13:36:41;97227.75;;;0.78;74.11
21401;BME280;18038;50.166;18.908;2023-02-01T13:40:17;97241.09;;;0.67;75.39
21401;BME280;18038;50.166;18.908;2023-02-01T13:43:40;97237.31;;;0.44;76.18
21401;BME280;18038;50.166;18.908;2023-02-01T13:47:26;97235.72;;;0.15;77.43
21401;BME280;18038;50.166;18.908;2023-02-01T13:50:37;97244.38;;;-0.03;79.14
21401;BME280;18038;50.166;18.908;2023-02-01T13:53:48;97257.75;;;-0.23;80.12
21401;BME280;18038;50.166;18.908;2023-02-01T13:57:00;97254.50;;;-0.35;80.88
21401;BME280;18038;50.166;18.908;2023-02-01T14:00:23;97268.63;;;-0.46;81.59
21401;BME280;18038;50.166;18.908;2023-02-01T14:03:44;97275.41;;;-0.53;81.39
21401;BME280;18038;50.166;18.908;2023-02-01T14:06:54;97275.16;;;-0.60;81.67
21401;BME280;18038;50.166;18.908;2023-02-01T14:17:49;97266.56;;;-1.09;83.41
21401;BME280;18038;50.166;18.908;2023-02-01T14:21:16;97267.78;;;-1.13;83.36
21401;BME280;18038;50.166;18.908;2023-02-01T14:24:28;97271.38;;;-1.14;83.68
21401;BME280;18038;50.166;18.908;2023-02-01T14:27:38;97269.06;;;-1.17;84.10
21401;BME280;18038;50.166;18.908;2023-02-01T14:30:48;97272.50;;;-1.17;84.20
21401;BME280;18038;50.166;18.908;2023-02-01T14:33:59;97273.59;;;-1.19;84.73
21401;BME280;18038;50.166;18.908;2023-02-01T14:37:11;97268.22;;;-1.27;85.05
21401;BME280;18038;50.166;18.908;2023-02-01T14:40:33;97257.47;;;-1.24;85.35
21401;BME280;18038;50.166;18.908;2023-02-01T14:43:50;97265.59;;;-1.27;85.30
21401;BME280;18038;50.166;18.908;2023-02-01T14:47:35;97264.63;;;-1.26;85.99
21401;BME280;18038;50.166;18.908;2023-02-01T14:50:44;97259.69;;;-1.20;85.88
21401;BME280;18038;50.166;18.908;2023-02-01T14:53:54;97265.88;;;-1.11;86.06
21401;BME280;18038;50.166;18.908;2023-02-01T14:57:01;97267.78;;;-1.13;86.04
21401;BME280;18038;50.166;18.908;2023-02-01T15:00:20;97269.59;;;-1.04;85.96
21401;BME280;18038;50.166;18.908;2023-02-01T15:03:49;97273.97;;;-0.95;85.60
21401;BME280;18038;50.166;18.908;2023-02-01T15:07:07;97276.19;;;-0.80;85.19
21401;BME280;18038;50.166;18.908;2023-02-01T15:10:18;97282.38;;;-0.81;84.85
21401;BME280;18038;50.166;18.908;2023-02-01T15:13:28;97287.47;;;-0.70;84.64
21401;BME280;18038;50.166;18.908;2023-02-01T15:16:42;97292.66;;;-0.60;84.59
21401;BME280;18038;50.166;18.908;2023-02-01T15:19:57;97295.69;;;-0.55;84.51
21401;BME280;18038;50.166;18.908;2023-02-01T15:23:17;97291.16;;;-0.53;83.68
21401;BME280;18038;50.166;18.908;2023-02-01T15:26:28;97293.88;;;-0.45;83.58
21401;BME280;18038;50.166;18.908;2023-02-01T15:29:36;97300.41;;;-0.49;83.66
21401;BME280;18038;50.166;18.908;2023-02-01T15:32:46;97295.69;;;-0.55;84.13
21401;BME280;18038;50.166;18.908;2023-02-01T15:36:08;97302.84;;;-0.48;83.69
21401;BME280;18038;50.166;18.908;2023-02-01T15:39:20;97305.88;;;-0.42;83.81
21401;BME280;18038;50.166;18.908;2023-02-01T15:42:28;97305.06;;;-0.43;83.60
21401;BME280;18038;50.166;18.908;2023-02-01T15:45:36;97314.88;;;-0.55;83.68
21401;BME280;18038;50.166;18.908;2023-02-01T15:48:45;97319.16;;;-0.44;83.75
21401;BME280;18038;50.166;18.908;2023-02-01T15:52:01;97318.47;;;-0.46;83.73
21401;BME280;18038;50.166;18.908;2023-02-01T15:55:20;97324.72;;;-0.57;83.74
21401;BME280;18038;50.166;18.908;2023-02-01T15:58:30;97322.22;;;-0.58;84.45
21401;BME280;18038;50.166;18.908;2023-02-01T16:01:40;97319.88;;;-0.61;84.32
21401;BME280;18038;50.166;18.908;2023-02-01T16:04:48;97308.97;;;-0.57;84.01
21401;BME280;18038;50.166;18.908;2023-02-01T16:08:06;97320.00;;;-0.53;84.05
21401;BME280;18038;50.166;18.908;2023-02-01T16:11:25;97327.03;;;-0.54;83.67
21401;BME280;18038;50.166;18.908;2023-02-01T16:14:33;97320.28;;;-0.46;83.26
21401;BME280;18038;50.166;18.908;2023-02-01T16:17:40;97323.97;;;-0.39;83.10
21401;BME280;18038;50.166;18.908;2023-02-01T16:20:48;97328.50;;;-0.41;82.75
21401;BME280;18038;50.166;18.908;2023-02-01T16:23:57;97319.94;;;-0.34;82.28
21401;BME280;18038;50.166;18.908;2023-02-01T16:27:08;97319.13;;;-0.34;81.94
21401;BME280;18038;50.166;18.908;2023-02-01T16:30:16;97319.41;;;-0.37;81.97
21401;BME280;18038;50.166;18.908;2023-02-01T16:33:25;97328.38;;;-0.30;81.35
21401;BME280;18038;50.166;18.908;2023-02-01T16:36:42;97334.00;;;-0.25;81.01
21401;BME280;18038;50.166;18.908;2023-02-01T16:39:57;97335.53;;;-0.32;80.46
21401;BME280;18038;50.166;18.908;2023-02-01T16:43:12;97334.00;;;-0.25;80.50
21401;BME280;18038;50.166;18.908;2023-02-01T16:46:38;97338.28;;;-0.24;80.25
21401;BME280;18038;50.166;18.908;2023-02-01T16:49:49;97340.50;;;-0.29;79.56
21401;BME280;18038;50.166;18.908;2023-02-01T16:52:55;97355.66;;;-0.23;78.95
21401;BME280;18038;50.166;18.908;2023-02-01T16:56:12;97361.06;;;-0.24;79.02
21401;BME280;18038;50.166;18.908;2023-02-01T16:59:20;97366.63;;;-0.28;78.59
21401;BME280;18038;50.166;18.908;2023-02-01T17:02:28;97367.84;;;-0.22;79.10
21401;BME280;18038;50.166;18.908;2023-02-01T17:05:34;97365.75;;;-0.18;79.32
21401;BME280;18038;50.166;18.908;2023-02-01T17:08:44;97372.91;;;-0.11;78.83
21401;BME280;18038;50.166;18.908;2023-02-01T17:11:55;97371.94;;;-0.10;78.59
21401;BME280;18038;50.166;18.908;2023-02-01T17:15:04;97376.25;;;-0.18;78.56
21401;BME280;18038;50.166;18.908;2023-02-01T17:18:17;97365.44;;;-0.06;78.57
21401;BME280;18038;50.166;18.908;2023-02-01T17:21:28;97366.41;;;-0.07;78.34
21401;BME280;18038;50.166;18.908;2023-02-01T17:24:40;97364.91;;;-0.09;78.80
21401;BME280;18038;50.166;18.908;2023-02-01T17:27:54;97363.78;;;-0.07;78.80